sensor_id;sensor_type;location;lat;lon;timestamp;P1;durP1;ratioP1;P2;durP2;ratioP2
75171;SDS011;63750;52.418;20.742;2023-04-15T00:02:27;13.60;;;12.30;;
75171;SDS011;63750;52.418;20.742;2023-04-15T00:04:55;14.20;;;12.70;;
75171;SDS011;63750;52.418;20.742;2023-04-15T00:07:24;13.30;;;12.00;;
75171;SDS011;63750;52.418;20.742;2023-04-15T00:09:52;13.80;;;12.40;;
75171;SDS011;63750;52.418;20.742;2023-04-15T00:12:21;13.70;;;12.40;;
75171;SDS011;63750;52.418;20.742;2023-04-15T00:14:50;13.70;;;12.30;;
75171;SDS011;63750;52.418;20.742;2023-04-15T00:17:18;13.40;;;12.20;;
75171;SDS011;63750;52.418;20.742;2023-04-15T00:19:46;13.80;;;12.40;;
75171;SDS011;63750;52.418;20.742;2023-04-15T00:22:15;15.40;;;12.70;;
75171;SDS011;63750;52.418;20.742;2023-04-15T00:24:43;13.80;;;12.30;;
75171;SDS011;63750;52.418;20.742;2023-04-15T00:27:11;13.50;;;12.20;;
75171;SDS011;63750;52.418;20.742;2023-04-15T00:29:40;13.60;;;12.30;;
75171;SDS011;63750;52.418;20.742;2023-04-15T00:32:08;14.70;;;13.20;;
75171;SDS011;63750;52.418;20.742;2023-04-15T00:34:37;14.60;;;13.20;;
75171;SDS011;63750;52.418;20.742;2023-04-15T00:37:05;13.30;;;12.00;;
75171;SDS011;63750;52.418;20.742;2023-04-15T00:39:34;14.10;;;12.30;;
75171;SDS011;63750;52.418;20.742;2023-04-15T00:42:03;13.00;;;11.70;;
75171;SDS011;63750;52.418;20.742;2023-04-15T00:44:31;13.00;;;11.80;;
75171;SDS011;63750;52.418;20.742;2023-04-15T00:47:00;13.40;;;12.20;;
75171;SDS011;63750;52.418;20.742;2023-04-15T00:49:30;13.80;;;12.50;;
75171;SDS011;63750;52.418;20.742;2023-04-15T00:51:58;14.50;;;12.60;;
75171;SDS011;63750;52.418;20.742;2023-04-15T00:54:26;13.90;;;12.50;;
75171;SDS011;63750;52.418;20.742;2023-04-15T00:56:55;13.20;;;11.90;;
75171;SDS011;63750;52.418;20.742;2023-04-15T00:59:24;14.90;;;13.50;;
75171;SDS011;63750;52.418;20.742;2023-04-15T01:01:52;13.80;;;12.50;;
75171;SDS011;63750;52.418;20.742;2023-04-15T01:04:21;13.90;;;12.50;;
75171;SDS011;63750;52.418;20.742;2023-04-15T01:06:50;13.50;;;12.30;;
75171;SDS011;63750;52.418;20.742;2023-04-15T01:09:18;14.30;;;12.80;;
75171;SDS011;63750;52.418;20.742;2023-04-15T01:11:47;14.40;;;13.10;;
75171;SDS011;63750;52.418;20.742;2023-04-15T01:14:16;14.50;;;13.10;;
75171;SDS011;63750;52.418;20.742;2023-04-15T01:16:44;13.70;;;12.40;;
75171;SDS011;63750;52.418;20.742;2023-04-15T01:19:14;14.60;;;13.20;;
75171;SDS011;63750;52.418;20.742;2023-04-15T01:21:44;14.00;;;12.70;;
75171;SDS011;63750;52.418;20.742;2023-04-15T01:24:12;13.80;;;12.40;;
75171;SDS011;63750;52.418;20.742;2023-04-15T01:26:44;15.00;;;13.50;;
75171;SDS011;63750;52.418;20.742;2023-04-15T01:29:12;14.50;;;13.10;;
75171;SDS011;63750;52.418;20.742;2023-04-15T01:31:43;14.80;;;13.40;;
75171;SDS011;63750;52.418;20.742;2023-04-15T01:34:16;14.50;;;13.10;;
75171;SDS011;63750;52.418;20.742;2023-04-15T01:36:45;14.00;;;12.70;;
75171;SDS011;63750;52.418;20.742;2023-04-15T01:39:14;14.40;;;13.00;;
75171;SDS011;63750;52.418;20.742;2023-04-15T01:41:42;14.80;;;13.40;;
75171;SDS011;63750;52.418;20.742;2023-04-15T01:44:11;14.20;;;12.90;;
75171;SDS011;63750;52.418;20.742;2023-04-15T01:46:39;14.60;;;13.20;;
75171;SDS011;63750;52.418;20.742;2023-04-15T01:49:07;15.20;;;13.70;;
75171;SDS011;63750;52.418;20.742;2023-04-15T01:51:36;14.60;;;13.20;;
75171;SDS011;63750;52.418;20.742;2023-04-15T01:54:04;13.90;;;12.60;;
75171;SDS011;63750;52.418;20.742;2023-04-15T01:56:32;14.30;;;12.90;;
75171;SDS011;63750;52.418;20.742;2023-04-15T01:59:01;14.60;;;13.20;;
75171;SDS011;63750;52.418;20.742;2023-04-15T02:01:29;14.70;;;13.40;;
75171;SDS011;63750;52.418;20.742;2023-04-15T02:03:58;15.00;;;13.50;;
75171;SDS011;63750;52.418;20.742;2023-04-15T02:06:26;16.00;;;14.50;;
75171;SDS011;63750;52.418;20.742;2023-04-15T02:08:55;15.70;;;14.30;;
75171;SDS011;63750;52.418;20.742;2023-04-15T02:11:23;15.30;;;13.80;;
75171;SDS011;63750;52.418;20.742;2023-04-15T02:13:52;15.80;;;14.40;;
75171;SDS011;63750;52.418;20.742;2023-04-15T02:16:20;15.20;;;13.70;;
75171;SDS011;63750;52.418;20.742;2023-04-15T02:18:48;16.60;;;14.90;;
75171;SDS011;63750;52.418;20.742;2023-04-15T02:21:17;16.40;;;14.90;;
75171;SDS011;63750;52.418;20.742;2023-04-15T02:23:45;15.50;;;14.20;;
75171;SDS011;63750;52.418;20.742;2023-04-15T02:26:14;16.70;;;15.20;;
75171;SDS011;63750;52.418;20.742;2023-04-15T02:28:42;19.20;;;15.40;;
75171;SDS011;63750;52.418;20.742;2023-04-15T02:31:12;17.00;;;15.40;;
75171;SDS011;63750;52.418;20.742;2023-04-15T02:33:40;16.60;;;15.00;;
75171;SDS011;63750;52.418;20.742;2023-04-15T02:36:09;16.90;;;15.30;;
75171;SDS011;63750;52.418;20.742;2023-04-15T02:38:37;16.30;;;14.70;;
75171;SDS011;63750;52.418;20.742;2023-04-15T02:41:05;16.40;;;14.90;;
75171;SDS011;63750;52.418;20.742;2023-04-15T02:43:35;17.20;;;15.60;;
75171;SDS011;63750;52.418;20.742;2023-04-15T02:46:04;17.30;;;15.60;;
75171;SDS011;63750;52.418;20.742;2023-04-15T02:48:32;17.20;;;15.60;;
75171;SDS011;63750;52.418;20.742;2023-04-15T02:51:14;17.70;;;16.00;;
75171;SDS011;63750;52.418;20.742;2023-04-15T02:53:43;17.20;;;15.40;;
75171;SDS011;63750;52.418;20.742;2023-04-15T02:56:11;17.70;;;16.00;;
75171;SDS011;63750;52.418;20.742;2023-04-15T02:58:40;17.40;;;15.70;;
75171;SDS011;63750;52.418;20.742;2023-04-15T03:01:10;17.80;;;16.20;;
75171;SDS011;63750;52.418;20.742;2023-04-15T03:03:38;18.20;;;16.50;;
75171;SDS011;63750;52.418;20.742;2023-04-15T03:06:07;17.80;;;15.90;;
75171;SDS011;63750;52.418;20.742;2023-04-15T03:08:35;18.70;;;16.80;;
75171;SDS011;63750;52.418;20.742;2023-04-15T03:11:03;19.00;;;17.00;;
75171;SDS011;63750;52.418;20.742;2023-04-15T03:13:32;18.30;;;16.60;;
75171;SDS011;63750;52.418;20.742;2023-04-15T03:16:00;18.70;;;16.80;;
75171;SDS011;63750;52.418;20.742;2023-04-15T03:18:29;18.60;;;16.80;;
75171;SDS011;63750;52.418;20.742;2023-04-15T03:20:57;18.60;;;16.70;;
75171;SDS011;63750;52.418;20.742;2023-04-15T03:23:26;17.00;;;15.40;;
75171;SDS011;63750;52.418;20.742;2023-04-15T03:25:56;18.10;;;16.20;;
75171;SDS011;63750;52.418;20.742;2023-04-15T03:28:27;19.10;;;17.40;;
75171;SDS011;63750;52.418;20.742;2023-04-15T03:30:55;19.80;;;17.90;;
75171;SDS011;63750;52.418;20.742;2023-04-15T03:33:24;18.70;;;17.00;;
75171;SDS011;63750;52.418;20.742;2023-04-15T03:35:52;20.90;;;18.80;;
75171;SDS011;63750;52.418;20.742;2023-04-15T03:38:21;19.00;;;17.20;;
75171;SDS011;63750;52.418;20.742;2023-04-15T03:40:49;20.60;;;18.60;;
75171;SDS011;63750;52.418;20.742;2023-04-15T03:43:18;19.60;;;17.60;;
75171;SDS011;63750;52.418;20.742;2023-04-15T03:45:46;19.60;;;17.70;;
75171;SDS011;63750;52.418;20.742;2023-04-15T03:48:14;19.10;;;17.20;;
75171;SDS011;63750;52.418;20.742;2023-04-15T03:50:42;18.60;;;16.80;;
75171;SDS011;63750;52.418;20.742;2023-04-15T03:53:11;19.20;;;17.30;;
75171;SDS011;63750;52.418;20.742;2023-04-15T03:55:39;19.20;;;17.30;;
75171;SDS011;63750;52.418;20.742;2023-04-15T03:58:08;19.00;;;17.20;;
75171;SDS011;63750;52.418;20.742;2023-04-15T04:00:37;19.10;;;17.40;;
75171;SDS011;63750;52.418;20.742;2023-04-15T04:03:05;18.00;;;16.20;;
75171;SDS011;63750;52.418;20.742;2023-04-15T04:05:34;18.30;;;16.40;;
75171;SDS011;63750;52.418;20.742;2023-04-15T04:08:03;18.40;;;16.70;;
75171;SDS011;63750;52.418;20.742;2023-04-15T04:10:32;19.20;;;17.20;;
75171;SDS011;63750;52.418;20.742;2023-04-15T04:13:01;18.40;;;16.80;;
75171;SDS011;63750;52.418;20.742;2023-04-15T04:15:29;18.70;;;16.90;;
75171;SDS011;63750;52.418;20.742;2023-04-15T04:17:57;19.30;;;17.50;;
75171;SDS011;63750;52.418;20.742;2023-04-15T04:20:26;18.80;;;17.00;;
75171;SDS011;63750;52.418;20.742;2023-04-15T04:22:54;18.90;;;17.10;;
75171;SDS011;63750;52.418;20.742;2023-04-15T04:25:22;19.00;;;17.10;;
75171;SDS011;63750;52.418;20.742;2023-04-15T04:27:51;18.00;;;16.30;;
75171;SDS011;63750;52.418;20.742;2023-04-15T04:30:19;19.50;;;17.60;;
75171;SDS011;63750;52.418;20.742;2023-04-15T04:32:48;19.50;;;17.70;;
75171;SDS011;63750;52.418;20.742;2023-04-15T04:35:17;19.50;;;17.50;;
75171;SDS011;63750;52.418;20.742;2023-04-15T04:37:45;18.10;;;16.30;;
75171;SDS011;63750;52.418;20.742;2023-04-15T04:40:13;19.10;;;17.20;;
75171;SDS011;63750;52.418;20.742;2023-04-15T04:42:42;18.70;;;16.90;;
75171;SDS011;63750;52.418;20.742;2023-04-15T04:45:11;18.30;;;16.50;;
75171;SDS011;63750;52.418;20.742;2023-04-15T04:47:39;17.30;;;15.50;;
75171;SDS011;63750;52.418;20.742;2023-04-15T04:50:09;17.60;;;15.90;;
75171;SDS011;63750;52.418;20.742;2023-04-15T04:52:37;18.40;;;16.60;;
75171;SDS011;63750;52.418;20.742;2023-04-15T04:55:06;17.70;;;16.00;;
75171;SDS011;63750;52.418;20.742;2023-04-15T04:57:35;17.10;;;15.40;;
75171;SDS011;63750;52.418;20.742;2023-04-15T05:00:04;17.50;;;15.70;;
75171;SDS011;63750;52.418;20.742;2023-04-15T05:02:34;17.40;;;15.70;;
75171;SDS011;63750;52.418;20.742;2023-04-15T05:05:02;16.00;;;14.50;;
75171;SDS011;63750;52.418;20.742;2023-04-15T05:07:32;17.90;;;16.10;;
75171;SDS011;63750;52.418;20.742;2023-04-15T05:10:00;18.00;;;16.20;;
75171;SDS011;63750;52.418;20.742;2023-04-15T05:12:29;16.90;;;15.40;;
75171;SDS011;63750;52.418;20.742;2023-04-15T05:14:57;17.50;;;15.80;;
75171;SDS011;63750;52.418;20.742;2023-04-15T05:17:26;18.40;;;16.40;;
75171;SDS011;63750;52.418;20.742;2023-04-15T05:19:54;17.60;;;15.60;;
75171;SDS011;63750;52.418;20.742;2023-04-15T05:22:22;16.80;;;15.20;;
75171;SDS011;63750;52.418;20.742;2023-04-15T05:24:51;17.00;;;15.40;;
75171;SDS011;63750;52.418;20.742;2023-04-15T05:27:19;16.60;;;15.00;;
75171;SDS011;63750;52.418;20.742;2023-04-15T05:29:47;17.20;;;15.50;;
75171;SDS011;63750;52.418;20.742;2023-04-15T05:32:16;17.10;;;15.50;;
75171;SDS011;63750;52.418;20.742;2023-04-15T05:34:44;17.40;;;15.60;;
75171;SDS011;63750;52.418;20.742;2023-04-15T05:37:13;16.90;;;15.20;;
75171;SDS011;63750;52.418;20.742;2023-04-15T05:39:41;17.10;;;15.50;;
75171;SDS011;63750;52.418;20.742;2023-04-15T05:42:10;16.20;;;14.70;;
75171;SDS011;63750;52.418;20.742;2023-04-15T05:44:38;17.10;;;15.40;;
75171;SDS011;63750;52.418;20.742;2023-04-15T05:47:06;18.00;;;16.20;;
75171;SDS011;63750;52.418;20.742;2023-04-15T05:49:34;17.30;;;15.60;;
75171;SDS011;63750;52.418;20.742;2023-04-15T05:52:03;18.30;;;16.40;;
75171;SDS011;63750;52.418;20.742;2023-04-15T05:54:32;17.80;;;16.00;;
75171;SDS011;63750;52.418;20.742;2023-04-15T05:57:00;18.80;;;17.00;;
75171;SDS011;63750;52.418;20.742;2023-04-15T05:59:29;17.50;;;15.90;;
75171;SDS011;63750;52.418;20.742;2023-04-15T06:01:57;18.10;;;16.30;;
75171;SDS011;63750;52.418;20.742;2023-04-15T06:04:26;17.40;;;15.70;;
75171;SDS011;63750;52.418;20.742;2023-04-15T06:06:54;17.40;;;15.70;;
75171;SDS011;63750;52.418;20.742;2023-04-15T06:09:23;17.50;;;15.90;;
75171;SDS011;63750;52.418;20.742;2023-04-15T06:11:51;17.30;;;15.70;;
75171;SDS011;63750;52.418;20.742;2023-04-15T06:14:20;19.00;;;17.00;;
75171;SDS011;63750;52.418;20.742;2023-04-15T06:16:48;17.40;;;15.60;;
75171;SDS011;63750;52.418;20.742;2023-04-15T06:19:17;17.70;;;16.00;;
75171;SDS011;63750;52.418;20.742;2023-04-15T06:21:45;16.80;;;15.10;;
75171;SDS011;63750;52.418;20.742;2023-04-15T06:24:13;18.10;;;16.30;;
75171;SDS011;63750;52.418;20.742;2023-04-15T06:26:42;17.00;;;15.30;;
75171;SDS011;63750;52.418;20.742;2023-04-15T06:29:10;16.30;;;14.80;;
75171;SDS011;63750;52.418;20.742;2023-04-15T06:31:39;17.10;;;15.40;;
75171;SDS011;63750;52.418;20.742;2023-04-15T06:34:07;16.20;;;14.60;;
75171;SDS011;63750;52.418;20.742;2023-04-15T06:36:35;16.40;;;14.90;;
75171;SDS011;63750;52.418;20.742;2023-04-15T06:39:04;16.30;;;14.70;;
75171;SDS011;63750;52.418;20.742;2023-04-15T06:41:32;15.80;;;14.40;;
75171;SDS011;63750;52.418;20.742;2023-04-15T06:44:01;16.00;;;14.40;;
75171;SDS011;63750;52.418;20.742;2023-04-15T06:46:30;16.40;;;14.80;;
75171;SDS011;63750;52.418;20.742;2023-04-15T06:48:59;17.20;;;15.50;;
75171;SDS011;63750;52.418;20.742;2023-04-15T06:51:27;17.10;;;15.40;;
75171;SDS011;63750;52.418;20.742;2023-04-15T06:53:55;16.50;;;14.90;;
75171;SDS011;63750;52.418;20.742;2023-04-15T06:56:24;15.90;;;14.40;;
75171;SDS011;63750;52.418;20.742;2023-04-15T06:58:53;15.10;;;13.70;;
75171;SDS011;63750;52.418;20.742;2023-04-15T07:01:21;16.00;;;14.50;;
75171;SDS011;63750;52.418;20.742;2023-04-15T07:03:50;15.00;;;13.50;;
75171;SDS011;63750;52.418;20.742;2023-04-15T07:06:18;17.10;;;15.40;;
75171;SDS011;63750;52.418;20.742;2023-04-15T07:08:47;16.30;;;14.60;;
75171;SDS011;63750;52.418;20.742;2023-04-15T07:11:15;16.00;;;14.40;;
75171;SDS011;63750;52.418;20.742;2023-04-15T07:13:43;16.30;;;14.80;;
75171;SDS011;63750;52.418;20.742;2023-04-15T07:16:12;16.60;;;14.90;;
75171;SDS011;63750;52.418;20.742;2023-04-15T07:18:40;18.30;;;15.90;;
75171;SDS011;63750;52.418;20.742;2023-04-15T07:21:08;19.90;;;17.80;;
75171;SDS011;63750;52.418;20.742;2023-04-15T07:23:37;19.10;;;17.10;;
75171;SDS011;63750;52.418;20.742;2023-04-15T07:26:05;18.90;;;17.00;;
75171;SDS011;63750;52.418;20.742;2023-04-15T07:28:34;17.30;;;15.50;;
75171;SDS011;63750;52.418;20.742;2023-04-15T07:31:02;17.10;;;15.40;;
75171;SDS011;63750;52.418;20.742;2023-04-15T07:33:31;15.40;;;14.00;;
75171;SDS011;63750;52.418;20.742;2023-04-15T07:35:59;15.90;;;14.30;;
75171;SDS011;63750;52.418;20.742;2023-04-15T07:38:28;17.50;;;15.80;;
75171;SDS011;63750;52.418;20.742;2023-04-15T07:40:56;16.50;;;14.80;;
75171;SDS011;63750;52.418;20.742;2023-04-15T07:43:25;14.10;;;12.80;;
75171;SDS011;63750;52.418;20.742;2023-04-15T07:45:54;15.20;;;13.80;;
75171;SDS011;63750;52.418;20.742;2023-04-15T07:48:23;14.10;;;12.70;;
75171;SDS011;63750;52.418;20.742;2023-04-15T07:50:51;14.40;;;12.90;;
75171;SDS011;63750;52.418;20.742;2023-04-15T07:53:20;13.60;;;12.30;;
75171;SDS011;63750;52.418;20.742;2023-04-15T07:55:48;13.30;;;12.00;;
75171;SDS011;63750;52.418;20.742;2023-04-15T07:58:16;14.10;;;12.80;;
75171;SDS011;63750;52.418;20.742;2023-04-15T08:00:45;13.20;;;12.00;;
75171;SDS011;63750;52.418;20.742;2023-04-15T08:03:13;13.20;;;11.90;;
75171;SDS011;63750;52.418;20.742;2023-04-15T08:05:42;12.10;;;11.00;;
75171;SDS011;63750;52.418;20.742;2023-04-15T08:08:10;11.70;;;10.70;;
75171;SDS011;63750;52.418;20.742;2023-04-15T08:10:38;12.50;;;11.10;;
75171;SDS011;63750;52.418;20.742;2023-04-15T08:13:07;12.70;;;11.50;;
75171;SDS011;63750;52.418;20.742;2023-04-15T08:15:35;11.30;;;10.30;;
75171;SDS011;63750;52.418;20.742;2023-04-15T08:18:04;12.00;;;10.90;;
75171;SDS011;63750;52.418;20.742;2023-04-15T08:20:32;11.40;;;10.40;;
75171;SDS011;63750;52.418;20.742;2023-04-15T08:23:01;11.20;;;10.20;;
75171;SDS011;63750;52.418;20.742;2023-04-15T08:25:29;11.80;;;10.80;;
75171;SDS011;63750;52.418;20.742;2023-04-15T08:27:58;10.80;;;9.80;;
75171;SDS011;63750;52.418;20.742;2023-04-15T08:30:29;11.30;;;10.20;;
75171;SDS011;63750;52.418;20.742;2023-04-15T08:32:58;11.00;;;9.90;;
75171;SDS011;63750;52.418;20.742;2023-04-15T08:35:26;11.60;;;10.60;;
75171;SDS011;63750;52.418;20.742;2023-04-15T08:37:55;10.90;;;10.00;;
75171;SDS011;63750;52.418;20.742;2023-04-15T08:40:23;11.30;;;10.20;;
75171;SDS011;63750;52.418;20.742;2023-04-15T08:42:59;10.70;;;9.70;;
75171;SDS011;63750;52.418;20.742;2023-04-15T08:45:30;11.40;;;10.30;;
75171;SDS011;63750;52.418;20.742;2023-04-15T08:47:59;11.70;;;10.70;;
75171;SDS011;63750;52.418;20.742;2023-04-15T08:50:30;12.10;;;11.00;;
75171;SDS011;63750;52.418;20.742;2023-04-15T08:52:59;11.50;;;10.30;;
75171;SDS011;63750;52.418;20.742;2023-04-15T08:55:28;11.10;;;10.10;;
75171;SDS011;63750;52.418;20.742;2023-04-15T08:57:58;10.40;;;9.40;;
75171;SDS011;63750;52.418;20.742;2023-04-15T09:00:28;10.30;;;9.30;;
75171;SDS011;63750;52.418;20.742;2023-04-15T09:02:58;10.90;;;9.90;;
75171;SDS011;63750;52.418;20.742;2023-04-15T09:05:28;9.60;;;8.80;;
75171;SDS011;63750;52.418;20.742;2023-04-15T09:07:58;10.70;;;9.60;;
75171;SDS011;63750;52.418;20.742;2023-04-15T09:10:26;9.90;;;9.00;;
75171;SDS011;63750;52.418;20.742;2023-04-15T09:12:55;10.20;;;9.30;;
75171;SDS011;63750;52.418;20.742;2023-04-15T09:15:25;10.10;;;9.10;;
75171;SDS011;63750;52.418;20.742;2023-04-15T09:17:53;9.00;;;8.20;;
75171;SDS011;63750;52.418;20.742;2023-04-15T09:20:22;10.10;;;9.20;;
75171;SDS011;63750;52.418;20.742;2023-04-15T09:22:50;10.40;;;9.50;;
75171;SDS011;63750;52.418;20.742;2023-04-15T09:25:26;10.10;;;9.20;;
75171;SDS011;63750;52.418;20.742;2023-04-15T09:27:55;10.10;;;9.30;;
75171;SDS011;63750;52.418;20.742;2023-04-15T09:30:25;10.80;;;9.80;;
75171;SDS011;63750;52.418;20.742;2023-04-15T09:32:55;10.30;;;9.20;;
75171;SDS011;63750;52.418;20.742;2023-04-15T09:35:25;9.60;;;8.80;;
75171;SDS011;63750;52.418;20.742;2023-04-15T09:38:00;9.40;;;8.60;;
75171;SDS011;63750;52.418;20.742;2023-04-15T09:40:34;9.00;;;8.20;;
75171;SDS011;63750;52.418;20.742;2023-04-15T09:43:03;8.90;;;8.00;;
75171;SDS011;63750;52.418;20.742;2023-04-15T09:45:33;9.10;;;8.30;;
75171;SDS011;63750;52.418;20.742;2023-04-15T09:48:15;9.50;;;8.60;;
75171;SDS011;63750;52.418;20.742;2023-04-15T09:50:45;9.90;;;9.00;;
75171;SDS011;63750;52.418;20.742;2023-04-15T09:53:16;9.00;;;8.10;;
75171;SDS011;63750;52.418;20.742;2023-04-15T09:55:48;9.40;;;8.50;;
75171;SDS011;63750;52.418;20.742;2023-04-15T09:58:18;9.30;;;8.40;;
75171;SDS011;63750;52.418;20.742;2023-04-15T10:00:48;8.90;;;8.00;;
75171;SDS011;63750;52.418;20.742;2023-04-15T10:03:19;9.40;;;8.60;;
75171;SDS011;63750;52.418;20.742;2023-04-15T10:05:49;8.10;;;7.40;;
75171;SDS011;63750;52.418;20.742;2023-04-15T10:08:19;7.90;;;7.20;;
75171;SDS011;63750;52.418;20.742;2023-04-15T10:10:48;8.30;;;7.60;;
75171;SDS011;63750;52.418;20.742;2023-04-15T10:13:19;7.60;;;7.00;;
75171;SDS011;63750;52.418;20.742;2023-04-15T10:15:49;8.00;;;7.30;;
75171;SDS011;63750;52.418;20.742;2023-04-15T10:18:26;8.50;;;7.70;;
75171;SDS011;63750;52.418;20.742;2023-04-15T10:20:59;8.30;;;7.60;;
75171;SDS011;63750;52.418;20.742;2023-04-15T10:23:27;7.90;;;7.20;;
75171;SDS011;63750;52.418;20.742;2023-04-15T10:25:56;8.80;;;8.00;;
75171;SDS011;63750;52.418;20.742;2023-04-15T10:28:25;9.60;;;8.70;;
75171;SDS011;63750;52.418;20.742;2023-04-15T10:30:54;10.50;;;9.50;;
75171;SDS011;63750;52.418;20.742;2023-04-15T10:33:23;8.00;;;7.40;;
75171;SDS011;63750;52.418;20.742;2023-04-15T10:35:53;8.00;;;7.40;;
75171;SDS011;63750;52.418;20.742;2023-04-15T10:38:33;8.20;;;7.50;;
75171;SDS011;63750;52.418;20.742;2023-04-15T10:41:16;8.80;;;8.00;;
75171;SDS011;63750;52.418;20.742;2023-04-15T10:43:46;8.50;;;7.80;;
75171;SDS011;63750;52.418;20.742;2023-04-15T10:46:17;8.90;;;8.10;;
75171;SDS011;63750;52.418;20.742;2023-04-15T10:48:47;8.30;;;7.60;;
75171;SDS011;63750;52.418;20.742;2023-04-15T10:51:17;9.00;;;8.20;;
75171;SDS011;63750;52.418;20.742;2023-04-15T10:53:56;8.30;;;7.50;;
75171;SDS011;63750;52.418;20.742;2023-04-15T10:56:25;9.10;;;8.30;;
75171;SDS011;63750;52.418;20.742;2023-04-15T10:58:55;8.40;;;7.60;;
75171;SDS011;63750;52.418;20.742;2023-04-15T11:01:38;9.10;;;8.30;;
75171;SDS011;63750;52.418;20.742;2023-04-15T11:07:14;8.90;;;8.00;;
75171;SDS011;63750;52.418;20.742;2023-04-15T11:09:59;9.00;;;8.20;;
75171;SDS011;63750;52.418;20.742;2023-04-15T11:12:34;8.60;;;7.80;;
75171;SDS011;63750;52.418;20.742;2023-04-15T11:17:55;8.30;;;7.60;;
75171;SDS011;63750;52.418;20.742;2023-04-15T11:20:24;8.30;;;7.60;;
75171;SDS011;63750;52.418;20.742;2023-04-15T11:22:53;8.50;;;7.80;;
75171;SDS011;63750;52.418;20.742;2023-04-15T11:25:25;9.20;;;8.40;;
75171;SDS011;63750;52.418;20.742;2023-04-15T11:27:54;7.40;;;6.80;;
75171;SDS011;63750;52.418;20.742;2023-04-15T11:30:25;7.70;;;7.00;;
75171;SDS011;63750;52.418;20.742;2023-04-15T11:32:56;8.00;;;7.30;;
75171;SDS011;63750;52.418;20.742;2023-04-15T11:35:25;8.20;;;6.80;;
75171;SDS011;63750;52.418;20.742;2023-04-15T11:37:54;8.30;;;7.50;;
75171;SDS011;63750;52.418;20.742;2023-04-15T11:40:23;7.90;;;7.20;;
75171;SDS011;63750;52.418;20.742;2023-04-15T11:43:03;8.10;;;7.30;;
75171;SDS011;63750;52.418;20.742;2023-04-15T11:45:33;8.00;;;7.30;;
75171;SDS011;63750;52.418;20.742;2023-04-15T11:48:05;7.70;;;7.00;;
75171;SDS011;63750;52.418;20.742;2023-04-15T11:50:36;7.50;;;6.80;;
75171;SDS011;63750;52.418;20.742;2023-04-15T11:53:05;7.60;;;6.90;;
75171;SDS011;63750;52.418;20.742;2023-04-15T11:55:41;7.80;;;7.20;;
75171;SDS011;63750;52.418;20.742;2023-04-15T11:58:11;7.90;;;7.20;;
75171;SDS011;63750;52.418;20.742;2023-04-15T12:00:45;7.00;;;6.40;;
75171;SDS011;63750;52.418;20.742;2023-04-15T12:03:21;7.00;;;6.40;;
75171;SDS011;63750;52.418;20.742;2023-04-15T12:06:04;7.20;;;6.60;;
75171;SDS011;63750;52.418;20.742;2023-04-15T12:08:50;6.70;;;6.10;;
75171;SDS011;63750;52.418;20.742;2023-04-15T12:11:29;6.80;;;6.20;;
75171;SDS011;63750;52.418;20.742;2023-04-15T12:14:20;6.60;;;6.10;;
75171;SDS011;63750;52.418;20.742;2023-04-15T12:16:53;6.50;;;5.90;;
75171;SDS011;63750;52.418;20.742;2023-04-15T12:19:23;6.90;;;6.30;;
75171;SDS011;63750;52.418;20.742;2023-04-15T12:21:53;7.70;;;7.00;;
75171;SDS011;63750;52.418;20.742;2023-04-15T12:24:26;6.80;;;6.20;;
75171;SDS011;63750;52.418;20.742;2023-04-15T12:26:57;6.90;;;6.30;;
75171;SDS011;63750;52.418;20.742;2023-04-15T12:29:29;6.50;;;6.00;;
75171;SDS011;63750;52.418;20.742;2023-04-15T12:32:03;7.00;;;6.40;;
75171;SDS011;63750;52.418;20.742;2023-04-15T12:34:33;6.50;;;5.90;;
75171;SDS011;63750;52.418;20.742;2023-04-15T12:37:03;6.10;;;5.60;;
75171;SDS011;63750;52.418;20.742;2023-04-15T12:39:35;6.80;;;6.30;;
75171;SDS011;63750;52.418;20.742;2023-04-15T12:42:05;8.90;;;8.10;;
75171;SDS011;63750;52.418;20.742;2023-04-15T12:44:33;8.00;;;7.30;;
75171;SDS011;63750;52.418;20.742;2023-04-15T12:47:02;8.60;;;7.70;;
75171;SDS011;63750;52.418;20.742;2023-04-15T12:49:32;7.70;;;6.90;;
75171;SDS011;63750;52.418;20.742;2023-04-15T12:52:00;7.50;;;6.80;;
75171;SDS011;63750;52.418;20.742;2023-04-15T12:54:29;6.90;;;6.20;;
75171;SDS011;63750;52.418;20.742;2023-04-15T12:56:58;6.40;;;5.70;;
75171;SDS011;63750;52.418;20.742;2023-04-15T12:59:27;6.20;;;5.70;;
75171;SDS011;63750;52.418;20.742;2023-04-15T13:01:56;6.60;;;6.00;;
75171;SDS011;63750;52.418;20.742;2023-04-15T13:04:24;6.50;;;5.90;;
75171;SDS011;63750;52.418;20.742;2023-04-15T13:06:53;6.60;;;5.90;;
75171;SDS011;63750;52.418;20.742;2023-04-15T13:09:21;5.80;;;5.30;;
75171;SDS011;63750;52.418;20.742;2023-04-15T13:11:49;5.70;;;5.20;;
75171;SDS011;63750;52.418;20.742;2023-04-15T13:14:18;6.30;;;5.70;;
75171;SDS011;63750;52.418;20.742;2023-04-15T13:16:47;6.00;;;5.40;;
75171;SDS011;63750;52.418;20.742;2023-04-15T13:19:15;5.80;;;5.30;;
75171;SDS011;63750;52.418;20.742;2023-04-15T13:21:44;6.70;;;6.20;;
75171;SDS011;63750;52.418;20.742;2023-04-15T13:24:12;6.20;;;5.70;;
75171;SDS011;63750;52.418;20.742;2023-04-15T13:26:40;7.10;;;6.50;;
75171;SDS011;63750;52.418;20.742;2023-04-15T13:29:09;5.90;;;5.40;;
75171;SDS011;63750;52.418;20.742;2023-04-15T13:31:37;6.40;;;5.70;;
75171;SDS011;63750;52.418;20.742;2023-04-15T13:34:05;5.50;;;5.10;;
75171;SDS011;63750;52.418;20.742;2023-04-15T13:36:34;5.80;;;5.30;;
75171;SDS011;63750;52.418;20.742;2023-04-15T13:39:02;5.10;;;4.70;;
75171;SDS011;63750;52.418;20.742;2023-04-15T13:41:30;4.80;;;4.40;;
75171;SDS011;63750;52.418;20.742;2023-04-15T13:43:58;4.90;;;4.50;;
75171;SDS011;63750;52.418;20.742;2023-04-15T13:46:27;4.70;;;4.30;;
75171;SDS011;63750;52.418;20.742;2023-04-15T13:48:55;6.40;;;5.30;;
75171;SDS011;63750;52.418;20.742;2023-04-15T13:51:23;5.90;;;5.40;;
75171;SDS011;63750;52.418;20.742;2023-04-15T13:53:52;5.20;;;4.70;;
75171;SDS011;63750;52.418;20.742;2023-04-15T13:56:20;5.40;;;5.00;;
75171;SDS011;63750;52.418;20.742;2023-04-15T13:58:50;6.00;;;5.50;;
75171;SDS011;63750;52.418;20.742;2023-04-15T14:01:19;4.70;;;4.30;;
75171;SDS011;63750;52.418;20.742;2023-04-15T14:03:47;4.10;;;3.70;;
75171;SDS011;63750;52.418;20.742;2023-04-15T14:06:15;4.30;;;3.50;;
75171;SDS011;63750;52.418;20.742;2023-04-15T14:08:44;3.40;;;3.10;;
75171;SDS011;63750;52.418;20.742;2023-04-15T14:11:12;3.30;;;3.00;;
75171;SDS011;63750;52.418;20.742;2023-04-15T14:13:40;3.30;;;2.80;;
75171;SDS011;63750;52.418;20.742;2023-04-15T14:16:09;3.90;;;3.50;;
75171;SDS011;63750;52.418;20.742;2023-04-15T14:18:37;3.60;;;3.20;;
75171;SDS011;63750;52.418;20.742;2023-04-15T14:21:06;3.30;;;3.00;;
75171;SDS011;63750;52.418;20.742;2023-04-15T14:23:34;3.80;;;3.30;;
75171;SDS011;63750;52.418;20.742;2023-04-15T14:26:02;3.60;;;3.30;;
75171;SDS011;63750;52.418;20.742;2023-04-15T14:28:31;5.70;;;3.60;;
75171;SDS011;63750;52.418;20.742;2023-04-15T14:31:00;3.80;;;3.50;;
75171;SDS011;63750;52.418;20.742;2023-04-15T14:33:28;3.60;;;3.30;;
75171;SDS011;63750;52.418;20.742;2023-04-15T14:35:57;3.40;;;3.20;;
75171;SDS011;63750;52.418;20.742;2023-04-15T14:38:25;4.00;;;3.70;;